BXS1836 OOMS-OOKB
Flight info
| Callsign | BXS1836 |
|---|---|
| Flight time | 0h 42m |
| Altitude | 22000 |
| Route | GERAR DCT EMATA DCT BORUL DCT DESPA |
| Aircraft | A321/M-SDE3FGHIRWY/LB1 |
Departure
| Time | 2026-05-05 11:35 |
|---|---|
| Airport | Muscat International Airport (OOMS) |
Arrival
| Time | 2026-05-05 12:18 |
|---|---|
| Airport | Khasab Airport (OOKB) |
| Time | Latitude | Longitude | Altitude | Speed | Heading |
|---|---|---|---|---|---|
| 2026-05-05 10:59 | 23.59960 | 58.28130 | 45 ft | 0 kts | 355° |
| 2026-05-05 11:22 | 23.59954 | 58.28131 | 43 ft | 4 kts | 355° |
| 2026-05-05 11:23 | 23.59927 | 58.28133 | 44 ft | 4 kts | 355° |
| 2026-05-05 11:23 | 23.59900 | 58.28136 | 42 ft | 4 kts | 355° |
| 2026-05-05 11:23 | 23.59876 | 58.28138 | 45 ft | 4 kts | 350° |
| 2026-05-05 11:23 | 23.59856 | 58.28149 | 43 ft | 4 kts | 291° |
| 2026-05-05 11:24 | 23.59853 | 58.28174 | 42 ft | 2 kts | 265° |
| 2026-05-05 11:24 | 23.59854 | 58.28180 | 42 ft | 0 kts | 265° |
| 2026-05-05 11:27 | 23.59852 | 58.28163 | 45 ft | 4 kts | 265° |
| 2026-05-05 11:27 | 23.59850 | 58.28130 | 45 ft | 5 kts | 265° |
| 2026-05-05 11:28 | 23.59846 | 58.28087 | 45 ft | 6 kts | 264° |
| 2026-05-05 11:28 | 23.59841 | 58.28035 | 45 ft | 7 kts | 264° |
| 2026-05-05 11:28 | 23.59817 | 58.27986 | 45 ft | 8 kts | 219° |
| 2026-05-05 11:28 | 23.59762 | 58.27978 | 45 ft | 8 kts | 185° |
| 2026-05-05 11:29 | 23.59709 | 58.27952 | 45 ft | 9 kts | 214° |
| 2026-05-05 11:29 | 23.59658 | 58.27907 | 45 ft | 10 kts | 219° |
| 2026-05-05 11:29 | 23.59602 | 58.27857 | 43 ft | 11 kts | 219° |
| 2026-05-05 11:29 | 23.59554 | 58.27794 | 45 ft | 11 kts | 253° |
| 2026-05-05 11:30 | 23.59545 | 58.27709 | 45 ft | 12 kts | 265° |
| 2026-05-05 11:30 | 23.59539 | 58.27621 | 45 ft | 12 kts | 264° |
| 2026-05-05 11:30 | 23.59531 | 58.27529 | 45 ft | 12 kts | 265° |
| 2026-05-05 11:30 | 23.59523 | 58.27435 | 45 ft | 13 kts | 264° |
| 2026-05-05 11:31 | 23.59515 | 58.27338 | 45 ft | 13 kts | 264° |
| 2026-05-05 11:31 | 23.59506 | 58.27241 | 44 ft | 12 kts | 264° |
| 2026-05-05 11:31 | 23.59498 | 58.27153 | 44 ft | 11 kts | 265° |
| 2026-05-05 11:31 | 23.59492 | 58.27074 | 44 ft | 10 kts | 265° |
| 2026-05-05 11:32 | 23.59486 | 58.27003 | 44 ft | 9 kts | 264° |
| 2026-05-05 11:32 | 23.59482 | 58.26940 | 44 ft | 8 kts | 265° |
| 2026-05-05 11:32 | 23.59477 | 58.26877 | 44 ft | 9 kts | 265° |
| 2026-05-05 11:32 | 23.59472 | 58.26803 | 44 ft | 10 kts | 265° |
| 2026-05-05 11:33 | 23.59463 | 58.26720 | 44 ft | 11 kts | 253° |
| 2026-05-05 11:33 | 23.59397 | 58.26681 | 44 ft | 12 kts | 186° |
| 2026-05-05 11:33 | 23.59313 | 58.26685 | 44 ft | 13 kts | 175° |
| 2026-05-05 11:33 | 23.59224 | 58.26694 | 45 ft | 13 kts | 173° |
| 2026-05-05 11:34 | 23.59176 | 58.26768 | 45 ft | 14 kts | 91° |
| 2026-05-05 11:34 | 23.59187 | 58.26886 | 44 ft | 17 kts | 78° |
| 2026-05-05 11:34 | 23.59196 | 58.27018 | 45 ft | 18 kts | 86° |
| 2026-05-05 11:34 | 23.59213 | 58.27224 | 45 ft | 48 kts | 83° |
| 2026-05-05 11:35 | 23.59262 | 58.27814 | 43 ft | 106 kts | 85° |
| 2026-05-05 11:35 | 23.59340 | 58.28778 | 44 ft | 148 kts | 85° |
| 2026-05-05 11:35 | 23.59423 | 58.29991 | 298 ft | 162 kts | 83° |
| 2026-05-05 11:35 | 23.59492 | 58.31221 | 810 ft | 162 kts | 78° |
| 2026-05-05 11:36 | 23.59980 | 58.32264 | 1320 ft | 159 kts | 43° |
| 2026-05-05 11:36 | 23.60908 | 58.32956 | 1748 ft | 164 kts | 45° |
| 2026-05-05 11:36 | 23.61525 | 58.34047 | 1905 ft | 178 kts | 66° |
| 2026-05-05 11:36 | 23.62409 | 58.35062 | 2012 ft | 201 kts | 27° |
| 2026-05-05 11:37 | 23.63860 | 58.35113 | 2147 ft | 227 kts | 343° |
| 2026-05-05 11:37 | 23.65159 | 58.33986 | 2261 ft | 257 kts | 304° |
| 2026-05-05 11:37 | 23.65990 | 58.32170 | 2442 ft | 278 kts | 294° |
| 2026-05-05 11:37 | 23.66773 | 58.30205 | 2906 ft | 285 kts | 294° |
| 2026-05-05 11:38 | 23.67567 | 58.28210 | 3520 ft | 288 kts | 293° |
| 2026-05-05 11:38 | 23.68370 | 58.26191 | 4070 ft | 292 kts | 293° |
| 2026-05-05 11:38 | 23.69256 | 58.24198 | 4718 ft | 292 kts | 300° |
| 2026-05-05 11:38 | 23.70345 | 58.22326 | 5354 ft | 293 kts | 303° |
| 2026-05-05 11:39 | 23.71534 | 58.20512 | 5993 ft | 295 kts | 305° |
| 2026-05-05 11:39 | 23.72758 | 58.18714 | 6618 ft | 295 kts | 304° |
| 2026-05-05 11:39 | 23.73967 | 58.16933 | 7217 ft | 297 kts | 304° |
| 2026-05-05 11:39 | 23.75201 | 58.15084 | 7821 ft | 298 kts | 303° |
| 2026-05-05 11:40 | 23.76407 | 58.13237 | 8405 ft | 301 kts | 302° |
| 2026-05-05 11:40 | 23.77617 | 58.11359 | 8998 ft | 304 kts | 302° |
| 2026-05-05 11:40 | 23.78815 | 58.09487 | 9599 ft | 306 kts | 302° |
| 2026-05-05 11:40 | 23.80036 | 58.07573 | 10146 ft | 310 kts | 302° |
| 2026-05-05 11:41 | 23.81303 | 58.05580 | 10289 ft | 329 kts | 302° |
| 2026-05-05 11:41 | 23.82649 | 58.03468 | 10434 ft | 347 kts | 302° |
| 2026-05-05 11:41 | 23.84048 | 58.01272 | 10825 ft | 355 kts | 303° |
| 2026-05-05 11:41 | 23.85467 | 57.99048 | 11366 ft | 358 kts | 303° |
| 2026-05-05 11:42 | 23.86896 | 57.96813 | 11955 ft | 359 kts | 304° |
| 2026-05-05 11:42 | 23.88329 | 57.94572 | 12564 ft | 360 kts | 304° |
| 2026-05-05 11:42 | 23.89764 | 57.92319 | 13159 ft | 362 kts | 304° |
| 2026-05-05 11:42 | 23.91204 | 57.90052 | 13732 ft | 364 kts | 305° |
| 2026-05-05 11:43 | 23.92345 | 57.88257 | 14156 ft | 365 kts | 305° |
| 2026-05-05 11:43 | 23.92938 | 57.87326 | 14404 ft | 364 kts | 305° |
| 2026-05-05 11:44 | 23.94389 | 57.85054 | 14987 ft | 364 kts | 305° |
| 2026-05-05 11:44 | 23.95838 | 57.82776 | 15538 ft | 366 kts | 305° |
| 2026-05-05 11:44 | 23.97302 | 57.80475 | 16023 ft | 370 kts | 305° |
| 2026-05-05 11:44 | 23.98774 | 57.78162 | 16567 ft | 371 kts | 305° |
| 2026-05-05 11:45 | 24.00250 | 57.75836 | 17093 ft | 373 kts | 305° |
| 2026-05-05 11:45 | 24.01735 | 57.73497 | 17622 ft | 376 kts | 305° |
| 2026-05-05 11:45 | 24.03223 | 57.71153 | 18134 ft | 378 kts | 305° |
| 2026-05-05 11:45 | 24.04732 | 57.68777 | 18599 ft | 380 kts | 305° |
| 2026-05-05 11:46 | 24.06240 | 57.66398 | 19032 ft | 382 kts | 304° |
| 2026-05-05 11:46 | 24.07756 | 57.63999 | 19448 ft | 384 kts | 304° |
| 2026-05-05 11:46 | 24.09282 | 57.61584 | 19875 ft | 386 kts | 304° |
| 2026-05-05 11:46 | 24.10591 | 57.59108 | 20833 ft | 365 kts | 296° |
| 2026-05-05 11:47 | 24.11673 | 57.56678 | 21373 ft | 348 kts | 295° |
| 2026-05-05 11:47 | 24.12725 | 57.54314 | 21630 ft | 343 kts | 295° |
| 2026-05-05 11:47 | 24.13771 | 57.51963 | 21740 ft | 343 kts | 295° |
| 2026-05-05 11:47 | 24.14187 | 57.51028 | 21751 ft | 342 kts | 295° |
| 2026-05-05 11:48 | 24.14806 | 57.49632 | 21763 ft | 342 kts | 295° |
| 2026-05-05 11:48 | 24.15840 | 57.47292 | 21771 ft | 342 kts | 295° |
| 2026-05-05 11:48 | 24.16874 | 57.44948 | 21766 ft | 342 kts | 295° |
| 2026-05-05 11:49 | 24.17908 | 57.42608 | 21764 ft | 341 kts | 295° |
| 2026-05-05 11:49 | 24.18942 | 57.40269 | 21772 ft | 341 kts | 295° |
| 2026-05-05 11:49 | 24.19974 | 57.37932 | 21769 ft | 341 kts | 295° |
| 2026-05-05 11:49 | 24.21008 | 57.35589 | 21765 ft | 341 kts | 295° |
| 2026-05-05 11:50 | 24.22038 | 57.33253 | 21762 ft | 341 kts | 295° |
| 2026-05-05 11:50 | 24.23070 | 57.30909 | 21759 ft | 341 kts | 295° |
| 2026-05-05 11:50 | 24.24101 | 57.28570 | 21769 ft | 341 kts | 295° |
| 2026-05-05 11:50 | 24.25131 | 57.26231 | 21777 ft | 341 kts | 295° |
| 2026-05-05 11:51 | 24.26162 | 57.23891 | 21773 ft | 341 kts | 295° |
| 2026-05-05 11:51 | 24.27193 | 57.21548 | 21771 ft | 341 kts | 295° |
| 2026-05-05 11:51 | 24.28221 | 57.19207 | 21769 ft | 341 kts | 295° |
| 2026-05-05 11:51 | 24.29250 | 57.16867 | 21777 ft | 341 kts | 295° |
| 2026-05-05 11:52 | 24.30282 | 57.14524 | 21782 ft | 341 kts | 295° |
| 2026-05-05 11:52 | 24.31313 | 57.12180 | 21783 ft | 341 kts | 295° |
| 2026-05-05 11:52 | 24.32343 | 57.09837 | 21776 ft | 341 kts | 295° |
| 2026-05-05 11:52 | 24.33372 | 57.07490 | 21770 ft | 342 kts | 295° |
| 2026-05-05 11:53 | 24.34402 | 57.05142 | 21781 ft | 342 kts | 295° |
| 2026-05-05 11:53 | 24.35433 | 57.02794 | 21776 ft | 342 kts | 295° |
| 2026-05-05 11:53 | 24.36464 | 57.00446 | 21775 ft | 342 kts | 295° |
| 2026-05-05 11:53 | 24.37647 | 56.98187 | 21773 ft | 342 kts | 304° |
| 2026-05-05 11:54 | 24.39178 | 56.96186 | 21775 ft | 343 kts | 314° |
| 2026-05-05 11:54 | 24.41020 | 56.94518 | 21782 ft | 345 kts | 324° |
| 2026-05-05 11:54 | 24.43095 | 56.93257 | 21775 ft | 346 kts | 334° |
| 2026-05-05 11:54 | 24.45285 | 56.92157 | 21774 ft | 346 kts | 333° |
| 2026-05-05 11:55 | 24.47473 | 56.91042 | 21768 ft | 347 kts | 333° |
| 2026-05-05 11:55 | 24.48949 | 56.90283 | 21770 ft | 347 kts | 333° |
| 2026-05-05 11:55 | 24.51840 | 56.88789 | 21767 ft | 347 kts | 333° |
| 2026-05-05 11:55 | 24.54016 | 56.87661 | 21762 ft | 346 kts | 333° |
| 2026-05-05 11:56 | 24.56197 | 56.86532 | 21771 ft | 347 kts | 333° |
| 2026-05-05 11:56 | 24.57673 | 56.85769 | 21769 ft | 347 kts | 333° |
| 2026-05-05 11:56 | 24.59853 | 56.84645 | 21769 ft | 347 kts | 333° |
| 2026-05-05 11:56 | 24.62036 | 56.83516 | 21772 ft | 347 kts | 333° |
| 2026-05-05 11:57 | 24.64220 | 56.82387 | 21776 ft | 347 kts | 333° |
| 2026-05-05 11:57 | 24.66403 | 56.81260 | 21776 ft | 347 kts | 333° |
| 2026-05-05 11:57 | 24.68589 | 56.80132 | 21774 ft | 347 kts | 333° |
| 2026-05-05 11:57 | 24.70770 | 56.79007 | 21776 ft | 347 kts | 333° |
| 2026-05-05 11:58 | 24.72922 | 56.77894 | 21771 ft | 347 kts | 333° |
| 2026-05-05 11:58 | 24.75105 | 56.76762 | 21776 ft | 347 kts | 333° |
| 2026-05-05 11:58 | 24.77289 | 56.75632 | 21776 ft | 347 kts | 333° |
| 2026-05-05 11:58 | 24.79469 | 56.74505 | 21775 ft | 347 kts | 333° |
| 2026-05-05 11:59 | 24.81648 | 56.73377 | 21781 ft | 347 kts | 333° |
| 2026-05-05 11:59 | 24.83834 | 56.72247 | 21784 ft | 347 kts | 333° |
| 2026-05-05 11:59 | 24.86014 | 56.71122 | 21790 ft | 346 kts | 333° |
| 2026-05-05 11:59 | 24.88196 | 56.69996 | 21793 ft | 346 kts | 333° |
| 2026-05-05 12:00 | 24.90379 | 56.68867 | 21780 ft | 346 kts | 333° |
| 2026-05-05 12:00 | 24.92555 | 56.67736 | 21786 ft | 346 kts | 333° |
| 2026-05-05 12:00 | 24.94729 | 56.66603 | 21790 ft | 346 kts | 333° |
| 2026-05-05 12:00 | 24.96905 | 56.65470 | 21782 ft | 346 kts | 333° |
| 2026-05-05 12:01 | 24.99080 | 56.64338 | 21776 ft | 346 kts | 333° |
| 2026-05-05 12:01 | 25.01238 | 56.63165 | 21782 ft | 345 kts | 331° |
| 2026-05-05 12:01 | 25.03364 | 56.61942 | 21783 ft | 345 kts | 330° |
| 2026-05-05 12:01 | 25.05478 | 56.60692 | 21783 ft | 345 kts | 330° |
| 2026-05-05 12:02 | 25.07594 | 56.59433 | 21661 ft | 347 kts | 330° |
| 2026-05-05 12:02 | 25.09746 | 56.58153 | 20936 ft | 354 kts | 330° |
| 2026-05-05 12:02 | 25.11883 | 56.56892 | 20784 ft | 342 kts | 330° |
| 2026-05-05 12:02 | 25.13953 | 56.55682 | 20642 ft | 331 kts | 330° |
| 2026-05-05 12:03 | 25.15973 | 56.54507 | 20350 ft | 326 kts | 330° |
| 2026-05-05 12:03 | 25.17959 | 56.53350 | 20143 ft | 318 kts | 330° |
| 2026-05-05 12:03 | 25.19895 | 56.52222 | 19906 ft | 311 kts | 330° |
| 2026-05-05 12:03 | 25.21798 | 56.51112 | 19576 ft | 308 kts | 330° |
| 2026-05-05 12:04 | 25.23737 | 56.50118 | 19225 ft | 307 kts | 337° |
| 2026-05-05 12:04 | 25.25750 | 56.49325 | 18867 ft | 306 kts | 340° |
| 2026-05-05 12:04 | 25.27780 | 56.48625 | 18517 ft | 305 kts | 341° |
| 2026-05-05 12:04 | 25.29804 | 56.47945 | 18187 ft | 303 kts | 341° |
| 2026-05-05 12:05 | 25.31815 | 56.47255 | 17813 ft | 302 kts | 341° |
| 2026-05-05 12:05 | 25.33809 | 56.46549 | 17436 ft | 300 kts | 340° |
| 2026-05-05 12:05 | 25.35789 | 56.45832 | 17067 ft | 299 kts | 340° |
| 2026-05-05 12:05 | 25.37759 | 56.45106 | 16692 ft | 298 kts | 340° |
| 2026-05-05 12:06 | 25.39716 | 56.44378 | 16331 ft | 296 kts | 340° |
| 2026-05-05 12:06 | 25.41661 | 56.43650 | 15990 ft | 292 kts | 340° |
| 2026-05-05 12:06 | 25.43562 | 56.42939 | 15683 ft | 284 kts | 340° |
| 2026-05-05 12:06 | 25.45413 | 56.42245 | 15309 ft | 279 kts | 340° |
| 2026-05-05 12:07 | 25.47248 | 56.41557 | 14896 ft | 277 kts | 340° |
| 2026-05-05 12:07 | 25.49070 | 56.40873 | 14473 ft | 276 kts | 340° |
| 2026-05-05 12:07 | 25.50883 | 56.40193 | 14050 ft | 275 kts | 340° |
| 2026-05-05 12:07 | 25.52674 | 56.39526 | 13631 ft | 275 kts | 340° |
| 2026-05-05 12:08 | 25.54507 | 56.38941 | 13157 ft | 274 kts | 346° |
| 2026-05-05 12:08 | 25.56362 | 56.38445 | 12690 ft | 274 kts | 346° |
| 2026-05-05 12:08 | 25.58215 | 56.37950 | 12225 ft | 274 kts | 346° |
| 2026-05-05 12:08 | 25.60064 | 56.37446 | 11779 ft | 273 kts | 347° |
| 2026-05-05 12:09 | 25.61895 | 56.36888 | 11311 ft | 274 kts | 344° |
| 2026-05-05 12:09 | 25.63716 | 56.36267 | 10906 ft | 273 kts | 343° |
| 2026-05-05 12:09 | 25.65527 | 56.35658 | 10504 ft | 271 kts | 344° |
| 2026-05-05 12:09 | 25.67332 | 56.35059 | 10088 ft | 270 kts | 344° |
| 2026-05-05 12:10 | 25.69137 | 56.34464 | 9595 ft | 273 kts | 345° |
| 2026-05-05 12:10 | 25.70980 | 56.34005 | 9189 ft | 269 kts | 355° |
| 2026-05-05 12:10 | 25.72837 | 56.33839 | 8812 ft | 267 kts | 358° |
| 2026-05-05 12:10 | 25.74666 | 56.33718 | 8956 ft | 264 kts | 358° |
| 2026-05-05 12:11 | 25.76514 | 56.33598 | 9208 ft | 268 kts | 358° |
| 2026-05-05 12:11 | 25.78381 | 56.33472 | 9454 ft | 270 kts | 359° |
| 2026-05-05 12:11 | 25.80257 | 56.33335 | 9701 ft | 270 kts | 358° |
| 2026-05-05 12:11 | 25.82138 | 56.33196 | 9922 ft | 271 kts | 358° |
| 2026-05-05 12:12 | 25.84021 | 56.33061 | 10008 ft | 272 kts | 358° |
| 2026-05-05 12:12 | 25.85907 | 56.32924 | 10035 ft | 271 kts | 358° |
| 2026-05-05 12:12 | 25.87790 | 56.32771 | 10036 ft | 272 kts | 354° |
| 2026-05-05 12:12 | 25.89581 | 56.32108 | 10038 ft | 274 kts | 334° |
| 2026-05-05 12:13 | 25.91253 | 56.31163 | 10038 ft | 272 kts | 334° |
| 2026-05-05 12:13 | 25.92901 | 56.30225 | 10000 ft | 254 kts | 335° |
| 2026-05-05 12:13 | 25.94424 | 56.29354 | 9908 ft | 239 kts | 335° |
| 2026-05-05 12:13 | 25.95903 | 56.28532 | 9799 ft | 237 kts | 340° |
| 2026-05-05 12:14 | 25.97454 | 56.27994 | 9566 ft | 223 kts | 347° |
| 2026-05-05 12:14 | 25.98884 | 56.27597 | 9204 ft | 210 kts | 348° |
| 2026-05-05 12:14 | 26.00289 | 56.27210 | 8809 ft | 206 kts | 348° |
| 2026-05-05 12:14 | 26.01685 | 56.26823 | 8258 ft | 209 kts | 348° |
| 2026-05-05 12:15 | 26.03099 | 56.26431 | 7661 ft | 209 kts | 348° |
| 2026-05-05 12:15 | 26.04515 | 56.26034 | 7049 ft | 213 kts | 348° |
| 2026-05-05 12:15 | 26.05952 | 56.25634 | 6324 ft | 213 kts | 349° |
| 2026-05-05 12:15 | 26.07450 | 56.25374 | 5332 ft | 222 kts | 357° |
| 2026-05-05 12:16 | 26.08997 | 56.25295 | 4422 ft | 218 kts | 356° |
| 2026-05-05 12:16 | 26.10467 | 56.25053 | 3524 ft | 210 kts | 348° |
| 2026-05-05 12:16 | 26.11850 | 56.24583 | 2577 ft | 207 kts | 340° |
| 2026-05-05 12:16 | 26.13191 | 56.24002 | 1535 ft | 208 kts | 340° |
| 2026-05-05 12:17 | 26.14570 | 56.23667 | 720 ft | 197 kts | 355° |
| 2026-05-05 12:17 | 26.15866 | 56.23741 | 194 ft | 177 kts | 9° |
| 2026-05-05 12:17 | 26.16972 | 56.24013 | 53 ft | 147 kts | 13° |
| 2026-05-05 12:17 | 26.17753 | 56.24221 | 52 ft | 73 kts | 14° |
| 2026-05-05 12:18 | 26.18020 | 56.24297 | 59 ft | 27 kts | 14° |
| 2026-05-05 12:18 | 26.18196 | 56.24310 | 57 ft | 25 kts | 1° |
| 2026-05-05 12:18 | 26.18254 | 56.24363 | 60 ft | 5 kts | 119° |
| 2026-05-05 12:18 | 26.18239 | 56.24363 | 55 ft | 2 kts | 188° |
| 2026-05-05 12:19 | 26.18226 | 56.24359 | 59 ft | 3 kts | 198° |
| 2026-05-05 12:19 | 26.18194 | 56.24347 | 57 ft | 7 kts | 196° |
| 2026-05-05 12:19 | 26.18133 | 56.24330 | 56 ft | 11 kts | 194° |
| 2026-05-05 12:19 | 26.18049 | 56.24307 | 50 ft | 14 kts | 193° |
| 2026-05-05 12:20 | 26.17949 | 56.24281 | 56 ft | 16 kts | 191° |
| 2026-05-05 12:20 | 26.17827 | 56.24251 | 55 ft | 20 kts | 195° |
| 2026-05-05 12:20 | 26.17671 | 56.24205 | 52 ft | 26 kts | 194° |
| 2026-05-05 12:20 | 26.17486 | 56.24153 | 50 ft | 29 kts | 193° |
| 2026-05-05 12:21 | 26.17277 | 56.24097 | 50 ft | 32 kts | 194° |
| 2026-05-05 12:21 | 26.17061 | 56.24036 | 51 ft | 33 kts | 194° |
| 2026-05-05 12:21 | 26.16902 | 56.23994 | 52 ft | 19 kts | 194° |
| 2026-05-05 12:21 | 26.16814 | 56.23951 | 52 ft | 13 kts | 223° |
| 2026-05-05 12:22 | 26.16773 | 56.23851 | 50 ft | 16 kts | 216° |
| 2026-05-05 12:22 | 26.16660 | 56.23814 | 54 ft | 17 kts | 193° |
| 2026-05-05 12:22 | 26.16539 | 56.23782 | 50 ft | 19 kts | 193° |
| 2026-05-05 12:22 | 26.16405 | 56.23746 | 50 ft | 17 kts | 193° |
| 2026-05-05 12:23 | 26.16371 | 56.23736 | 51 ft | 0 kts | 194° |
| 2026-05-05 12:23 | 26.16367 | 56.23735 | 51 ft | 2 kts | 194° |
| 2026-05-05 12:24 | 26.16347 | 56.23730 | 51 ft | 4 kts | 194° |
| 2026-05-05 12:24 | 26.16314 | 56.23721 | 51 ft | 5 kts | 193° |
| 2026-05-05 12:24 | 26.16293 | 56.23697 | 50 ft | 4 kts | 263° |
| 2026-05-05 12:24 | 26.16309 | 56.23672 | 49 ft | 4 kts | 317° |
| 2026-05-05 12:25 | 26.16329 | 56.23655 | 50 ft | 0 kts | 326° |